createdAt,value
2022-10-30T00:00:08.770Z,970.47
2022-10-30T00:00:58.736Z,970.46
2022-10-30T00:01:48.792Z,970.43
2022-10-30T00:02:38.762Z,970.43
2022-10-30T00:03:28.716Z,970.41
2022-10-30T00:04:18.706Z,970.41
2022-10-30T00:05:08.725Z,970.38
2022-10-30T00:05:58.696Z,970.39
2022-10-30T00:06:48.680Z,970.37
2022-10-30T00:07:38.666Z,970.34
2022-10-30T00:08:28.667Z,970.34
2022-10-30T00:09:18.649Z,970.28
2022-10-30T00:10:08.645Z,970.28
2022-10-30T00:10:58.674Z,970.26
2022-10-30T00:11:48.629Z,970.24
2022-10-30T00:12:38.622Z,970.24
2022-10-30T00:13:28.606Z,970.24
2022-10-30T00:14:18.591Z,970.23
2022-10-30T00:15:08.587Z,970.25
2022-10-30T00:15:58.579Z,970.24
2022-10-30T00:16:48.587Z,970.26
2022-10-30T00:17:38.561Z,970.27
2022-10-30T00:18:28.549Z,970.24
2022-10-30T00:19:18.536Z,970.28
2022-10-30T00:20:08.532Z,970.28
2022-10-30T00:20:58.819Z,970.28
2022-10-30T00:21:48.516Z,970.26
2022-10-30T00:22:38.496Z,970.32
2022-10-30T00:23:28.496Z,970.34
2022-10-30T00:24:18.487Z,970.31
2022-10-30T00:25:08.474Z,970.32
2022-10-30T00:25:58.464Z,970.31
2022-10-30T00:26:48.484Z,970.34
2022-10-30T00:27:38.445Z,970.33
2022-10-30T00:28:28.439Z,970.33
2022-10-30T00:29:18.434Z,970.36
2022-10-30T00:30:08.436Z,970.34
2022-10-30T00:30:58.416Z,970.37
2022-10-30T00:31:48.408Z,970.32
2022-10-30T00:32:38.415Z,970.30
2022-10-30T00:33:28.375Z,970.31
2022-10-30T00:34:18.374Z,970.31
2022-10-30T00:35:08.367Z,970.30
2022-10-30T00:35:58.346Z,970.28
2022-10-30T00:36:48.355Z,970.32
2022-10-30T00:37:38.338Z,970.34
2022-10-30T00:38:28.378Z,970.33
2022-10-30T00:39:18.314Z,970.31
2022-10-30T00:40:08.304Z,970.36
2022-10-30T00:40:58.295Z,970.31
2022-10-30T00:41:48.294Z,970.31
2022-10-30T00:42:38.278Z,970.25
2022-10-30T00:43:28.263Z,970.31
2022-10-30T00:44:18.273Z,970.28
2022-10-30T00:45:08.254Z,970.32
2022-10-30T00:45:58.235Z,970.28
2022-10-30T00:46:48.233Z,970.26
2022-10-30T00:47:38.223Z,970.27
2022-10-30T00:48:28.226Z,970.26
2022-10-30T00:49:18.195Z,970.24
2022-10-30T00:50:08.220Z,970.25
2022-10-30T00:50:58.178Z,970.28
2022-10-30T00:51:48.180Z,970.27
2022-10-30T00:52:38.161Z,970.26
2022-10-30T00:53:28.152Z,970.25
2022-10-30T00:54:18.133Z,970.24
2022-10-30T00:55:08.133Z,970.22
2022-10-30T00:55:58.330Z,970.20
2022-10-30T00:56:48.126Z,970.19
2022-10-30T00:57:38.102Z,970.18
2022-10-30T00:58:28.093Z,970.18
2022-10-30T00:59:18.082Z,970.21
2022-10-30T01:00:08.073Z,970.20
2022-10-30T01:00:58.140Z,970.19
2022-10-30T01:01:48.212Z,970.19
2022-10-30T01:02:38.123Z,970.18
2022-10-30T01:03:28.042Z,970.17
2022-10-30T01:04:18.020Z,970.18
2022-10-30T01:05:08.011Z,970.16
2022-10-30T01:05:58.002Z,970.15
2022-10-30T01:06:48.004Z,970.17
2022-10-30T01:07:38.214Z,970.14
2022-10-30T01:08:28.016Z,970.11
2022-10-30T01:09:18.015Z,970.12
2022-10-30T01:10:07.962Z,970.16
2022-10-30T01:10:57.953Z,970.14
2022-10-30T01:11:47.942Z,970.16
2022-10-30T01:12:37.930Z,970.14
2022-10-30T01:13:27.947Z,970.09
2022-10-30T01:14:17.910Z,970.12
2022-10-30T01:15:07.900Z,970.08
2022-10-30T01:15:57.902Z,970.08
2022-10-30T01:16:47.887Z,970.10
2022-10-30T01:17:37.870Z,970.12
2022-10-30T01:18:27.869Z,970.11
2022-10-30T01:19:17.907Z,970.09
2022-10-30T01:20:07.854Z,970.11
2022-10-30T01:20:57.835Z,970.07
2022-10-30T01:21:47.830Z,970.08
2022-10-30T01:22:37.822Z,970.06
2022-10-30T01:23:27.820Z,970.07
2022-10-30T01:24:17.807Z,970.08
2022-10-30T01:25:07.836Z,970.07
2022-10-30T01:25:57.787Z,970.08
2022-10-30T01:26:47.769Z,970.07
2022-10-30T01:27:37.771Z,970.07
2022-10-30T01:28:27.755Z,970.09
2022-10-30T01:29:17.750Z,970.10
2022-10-30T01:30:07.739Z,970.07
2022-10-30T01:30:57.928Z,970.08
2022-10-30T01:31:47.719Z,970.05
2022-10-30T01:32:37.708Z,970.05
2022-10-30T01:33:27.689Z,970.05
2022-10-30T01:34:17.698Z,970.01
2022-10-30T01:35:07.677Z,970.02
2022-10-30T01:35:57.668Z,970.05
2022-10-30T01:36:47.848Z,970.05
2022-10-30T01:37:37.648Z,970.02
2022-10-30T01:38:27.653Z,969.99
2022-10-30T01:39:17.647Z,970.03
2022-10-30T01:40:07.619Z,969.99
2022-10-30T01:40:57.618Z,970.04
2022-10-30T01:41:47.607Z,970.03
2022-10-30T01:42:37.827Z,969.98
2022-10-30T01:43:27.592Z,970.00
2022-10-30T01:44:17.585Z,969.99
2022-10-30T01:45:07.569Z,970.03
2022-10-30T01:45:57.557Z,969.98
2022-10-30T01:46:47.560Z,970.02
2022-10-30T01:47:37.537Z,970.01
2022-10-30T01:48:27.738Z,970.01
2022-10-30T01:49:17.574Z,970.04
2022-10-30T01:50:07.506Z,970.00
2022-10-30T01:50:57.508Z,969.98
2022-10-30T01:51:47.497Z,969.99
2022-10-30T01:52:37.498Z,970.03
2022-10-30T01:53:27.465Z,969.99
2022-10-30T01:54:17.486Z,969.94
2022-10-30T01:55:07.446Z,969.99
2022-10-30T01:55:57.447Z,969.95
2022-10-30T01:56:47.435Z,969.96
2022-10-30T01:57:37.426Z,969.95
2022-10-30T01:58:27.416Z,969.95
2022-10-30T01:59:17.416Z,969.95
2022-10-30T02:00:07.605Z,969.98
2022-10-30T02:00:57.499Z,969.93
2022-10-30T02:01:47.623Z,969.98
2022-10-30T02:02:37.449Z,969.93
2022-10-30T02:03:27.365Z,969.94
2022-10-30T02:04:17.362Z,969.93
2022-10-30T02:05:07.346Z,969.90
2022-10-30T02:05:57.362Z,969.92
2022-10-30T02:06:47.336Z,969.95
2022-10-30T02:07:37.326Z,969.91
2022-10-30T02:08:27.317Z,969.90
2022-10-30T02:09:17.306Z,969.92
2022-10-30T02:10:07.289Z,969.90
2022-10-30T02:10:57.284Z,969.93
2022-10-30T02:11:47.293Z,969.94
2022-10-30T02:12:37.261Z,969.91
2022-10-30T02:13:27.246Z,969.85
2022-10-30T02:14:17.234Z,969.88
2022-10-30T02:15:07.236Z,969.87
2022-10-30T02:15:57.224Z,969.86
2022-10-30T02:16:47.205Z,969.89
2022-10-30T02:17:37.440Z,969.90
2022-10-30T02:18:27.195Z,969.88
2022-10-30T02:19:17.193Z,969.87
2022-10-30T02:20:07.174Z,969.84
2022-10-30T02:20:57.226Z,969.84
2022-10-30T02:21:47.153Z,969.87
2022-10-30T02:22:37.235Z,969.84
2022-10-30T02:23:27.235Z,969.88
2022-10-30T02:24:17.123Z,969.88
2022-10-30T02:25:07.112Z,969.90
2022-10-30T02:25:57.114Z,969.88
2022-10-30T02:26:47.092Z,969.90
2022-10-30T02:27:37.082Z,969.85
2022-10-30T02:28:27.075Z,969.86
2022-10-30T02:29:17.107Z,969.84
2022-10-30T02:30:07.063Z,969.80
2022-10-30T02:30:57.060Z,969.86
2022-10-30T02:31:47.064Z,969.83
2022-10-30T02:32:37.041Z,969.78
2022-10-30T02:33:27.032Z,969.80
2022-10-30T02:34:17.016Z,969.84
2022-10-30T02:35:07.032Z,969.84
2022-10-30T02:35:57.000Z,969.83
2022-10-30T02:36:46.982Z,969.80
2022-10-30T02:37:37.106Z,969.87
2022-10-30T02:38:26.962Z,969.83
2022-10-30T02:39:16.961Z,969.81
2022-10-30T02:40:06.951Z,969.85
2022-10-30T02:40:56.962Z,969.84
2022-10-30T02:41:46.921Z,969.86
2022-10-30T02:42:36.943Z,969.87
2022-10-30T02:43:26.910Z,969.82
2022-10-30T02:44:16.904Z,969.82
2022-10-30T02:45:06.893Z,969.82
2022-10-30T02:45:56.880Z,969.83
2022-10-30T02:46:46.902Z,969.83
2022-10-30T02:47:36.868Z,969.81
2022-10-30T02:48:26.850Z,969.82
2022-10-30T02:49:16.850Z,969.79
2022-10-30T02:50:06.842Z,969.80
2022-10-30T02:50:56.832Z,969.78
2022-10-30T02:51:46.810Z,969.74
2022-10-30T02:52:36.841Z,969.77
2022-10-30T02:53:26.796Z,969.79
2022-10-30T02:54:16.791Z,969.77
2022-10-30T02:55:06.782Z,969.78
2022-10-30T02:55:56.775Z,969.76
2022-10-30T02:56:46.763Z,969.75
2022-10-30T02:57:36.749Z,969.78
2022-10-30T02:58:26.773Z,969.76
2022-10-30T02:59:16.743Z,969.78
2022-10-30T03:00:06.720Z,969.81
2022-10-30T03:00:56.749Z,969.76
2022-10-30T03:01:46.815Z,969.80
2022-10-30T03:02:36.702Z,969.82
2022-10-30T03:03:26.695Z,969.77
2022-10-30T03:04:16.890Z,969.82
2022-10-30T03:05:06.667Z,969.82
2022-10-30T03:05:56.660Z,969.81
2022-10-30T03:06:46.650Z,969.78
2022-10-30T03:07:36.637Z,969.75
2022-10-30T03:08:26.645Z,969.77
2022-10-30T03:09:16.630Z,969.80
2022-10-30T03:10:06.635Z,969.81
2022-10-30T03:10:56.608Z,969.80
2022-10-30T03:11:46.597Z,969.78
2022-10-30T03:12:36.595Z,969.81
2022-10-30T03:13:26.582Z,969.81
2022-10-30T03:14:16.569Z,969.76
2022-10-30T03:15:06.559Z,969.80
2022-10-30T03:15:56.580Z,969.80
2022-10-30T03:16:46.541Z,969.87
2022-10-30T03:17:36.600Z,969.85
2022-10-30T03:18:26.531Z,969.85
2022-10-30T03:19:16.508Z,969.87
2022-10-30T03:20:06.499Z,969.88
2022-10-30T03:20:56.514Z,969.88
2022-10-30T03:21:46.537Z,969.88
2022-10-30T03:22:36.484Z,969.89
2022-10-30T03:23:26.464Z,969.89
2022-10-30T03:24:16.455Z,969.89
2022-10-30T03:25:06.448Z,969.90
2022-10-30T03:25:56.438Z,969.86
2022-10-30T03:26:46.657Z,969.90
2022-10-30T03:27:36.424Z,969.85
2022-10-30T03:28:26.406Z,969.88
2022-10-30T03:29:16.402Z,969.87
2022-10-30T03:30:06.397Z,969.85
2022-10-30T03:30:56.375Z,969.86
2022-10-30T03:31:46.371Z,969.90
2022-10-30T03:32:36.393Z,969.89
2022-10-30T03:33:26.347Z,969.89
2022-10-30T03:34:16.346Z,969.91
2022-10-30T03:35:06.326Z,969.88
2022-10-30T03:35:56.336Z,969.89
2022-10-30T03:36:46.312Z,969.89
2022-10-30T03:37:36.304Z,969.89
2022-10-30T03:38:26.504Z,969.92
2022-10-30T03:39:16.295Z,969.88
2022-10-30T03:40:06.273Z,969.92
2022-10-30T03:40:56.265Z,969.94
2022-10-30T03:41:46.257Z,969.91
2022-10-30T03:42:36.243Z,969.91
2022-10-30T03:43:26.234Z,969.92
2022-10-30T03:44:16.257Z,969.90
2022-10-30T03:45:06.224Z,969.92
2022-10-30T03:45:56.214Z,969.88
2022-10-30T03:46:46.193Z,969.91
2022-10-30T03:47:36.193Z,969.93
2022-10-30T03:48:26.181Z,969.92
2022-10-30T03:49:16.177Z,969.92
2022-10-30T03:50:06.382Z,969.94
2022-10-30T03:50:56.163Z,969.91
2022-10-30T03:51:46.143Z,969.94
2022-10-30T03:52:36.145Z,969.90
2022-10-30T03:53:26.141Z,969.90
2022-10-30T03:54:16.117Z,969.92
2022-10-30T03:55:06.113Z,969.90
2022-10-30T03:55:56.134Z,969.91
2022-10-30T03:56:46.091Z,969.90
2022-10-30T03:57:36.083Z,969.86
2022-10-30T03:58:26.070Z,969.89
2022-10-30T03:59:16.068Z,969.89
2022-10-30T04:00:06.052Z,969.87
2022-10-30T04:00:56.120Z,969.87
2022-10-30T04:01:46.357Z,969.91
2022-10-30T04:02:36.023Z,969.91
2022-10-30T04:03:26.016Z,969.90
2022-10-30T04:04:16.003Z,969.90
2022-10-30T04:05:05.991Z,969.89
2022-10-30T04:05:55.993Z,969.97
2022-10-30T04:06:45.980Z,969.90
2022-10-30T04:07:36.022Z,970.00
2022-10-30T04:08:25.961Z,969.89
2022-10-30T04:09:15.950Z,969.90
2022-10-30T04:10:05.942Z,969.87
2022-10-30T04:10:55.983Z,969.86
2022-10-30T04:11:45.923Z,969.93
2022-10-30T04:12:35.912Z,969.85
2022-10-30T04:13:25.946Z,969.88
2022-10-30T04:14:15.890Z,969.84
2022-10-30T04:15:05.876Z,969.89
2022-10-30T04:15:57.890Z,969.89
2022-10-30T04:16:45.880Z,969.92
2022-10-30T04:17:35.860Z,969.88
2022-10-30T04:18:25.880Z,969.94
2022-10-30T04:19:15.868Z,969.91
2022-10-30T04:20:05.828Z,969.93
2022-10-30T04:20:55.832Z,969.93
2022-10-30T04:21:45.809Z,969.85
2022-10-30T04:22:35.798Z,969.91
2022-10-30T04:23:25.800Z,969.95
2022-10-30T04:24:15.791Z,969.90
2022-10-30T04:25:05.986Z,969.89
2022-10-30T04:25:55.765Z,969.89
2022-10-30T04:26:45.758Z,969.89
2022-10-30T04:27:35.747Z,969.91
2022-10-30T04:28:25.728Z,969.87
2022-10-30T04:29:15.732Z,969.89
2022-10-30T04:30:05.711Z,969.86
2022-10-30T04:30:55.737Z,969.89
2022-10-30T04:31:45.695Z,969.87
2022-10-30T04:32:35.687Z,969.90
2022-10-30T04:33:25.676Z,969.89
2022-10-30T04:34:15.667Z,969.92
2022-10-30T04:35:05.657Z,969.91
2022-10-30T04:35:55.648Z,969.92
2022-10-30T04:36:45.665Z,969.90
2022-10-30T04:37:35.637Z,969.92
2022-10-30T04:38:25.617Z,969.89
2022-10-30T04:39:15.611Z,969.93
2022-10-30T04:40:05.601Z,969.93
2022-10-30T04:40:55.607Z,969.90
2022-10-30T04:41:45.586Z,969.90
2022-10-30T04:42:35.603Z,969.96
2022-10-30T04:43:25.566Z,969.94
2022-10-30T04:44:15.566Z,969.94
2022-10-30T04:45:06.355Z,969.96
2022-10-30T04:45:55.545Z,969.97
2022-10-30T04:46:45.526Z,969.96
2022-10-30T04:47:35.530Z,969.98
2022-10-30T04:48:25.558Z,969.92
2022-10-30T04:49:15.510Z,970.00
2022-10-30T04:50:05.497Z,969.98
2022-10-30T04:50:55.568Z,970.02
2022-10-30T04:51:45.477Z,969.96
2022-10-30T04:52:35.472Z,969.99
2022-10-30T04:53:25.464Z,969.93
2022-10-30T04:54:15.473Z,969.97
2022-10-30T04:55:05.437Z,969.94
2022-10-30T04:55:55.425Z,970.01
2022-10-30T04:56:45.415Z,969.96
2022-10-30T04:57:35.417Z,969.98
2022-10-30T04:58:25.616Z,969.94
2022-10-30T04:59:15.388Z,969.95
2022-10-30T05:00:05.391Z,969.94
2022-10-30T05:01:00.371Z,969.96
2022-10-30T05:01:46.470Z,969.91
2022-10-30T05:02:35.564Z,969.91
2022-10-30T05:03:25.347Z,969.92
2022-10-30T05:04:15.556Z,969.92
2022-10-30T05:05:05.344Z,969.87
2022-10-30T05:05:55.317Z,969.86
2022-10-30T05:06:45.316Z,969.86
2022-10-30T05:07:35.296Z,969.87
2022-10-30T05:08:25.294Z,969.90
2022-10-30T05:09:15.279Z,969.86
2022-10-30T05:10:05.348Z,969.86
2022-10-30T05:10:55.256Z,969.86
2022-10-30T05:11:45.252Z,969.88
2022-10-30T05:12:35.236Z,969.90
2022-10-30T05:13:25.234Z,969.88
2022-10-30T05:14:15.224Z,969.88
2022-10-30T05:15:05.214Z,969.86
2022-10-30T05:15:55.233Z,969.86
2022-10-30T05:16:45.201Z,969.85
2022-10-30T05:17:35.185Z,969.85
2022-10-30T05:18:25.188Z,969.87
2022-10-30T05:19:15.162Z,969.85
2022-10-30T05:20:05.156Z,969.82
2022-10-30T05:20:55.147Z,969.83
2022-10-30T05:21:45.163Z,969.76
2022-10-30T05:22:35.125Z,969.78
2022-10-30T05:23:25.120Z,969.78
2022-10-30T05:24:15.104Z,969.82
2022-10-30T05:25:05.110Z,969.80
2022-10-30T05:25:55.081Z,969.77
2022-10-30T05:26:45.085Z,969.76
2022-10-30T05:27:35.090Z,969.77
2022-10-30T05:28:25.070Z,969.78
2022-10-30T05:29:15.058Z,969.72
2022-10-30T05:30:05.054Z,969.73
2022-10-30T05:30:55.032Z,969.77
2022-10-30T05:31:45.032Z,969.74
2022-10-30T05:32:35.018Z,969.74
2022-10-30T05:33:25.033Z,969.72
2022-10-30T05:34:15.002Z,969.77
2022-10-30T05:35:05.048Z,969.75
2022-10-30T05:35:54.971Z,969.77
2022-10-30T05:36:44.985Z,969.80
2022-10-30T05:37:34.964Z,969.77
2022-10-30T05:38:24.953Z,969.81
2022-10-30T05:39:14.961Z,969.79
2022-10-30T05:40:04.939Z,969.78
2022-10-30T05:40:54.922Z,969.79
2022-10-30T05:41:44.914Z,969.78
2022-10-30T05:42:34.899Z,969.77
2022-10-30T05:43:24.901Z,969.79
2022-10-30T05:44:18.132Z,969.79
2022-10-30T05:45:05.909Z,969.80
2022-10-30T05:45:54.871Z,969.79
2022-10-30T05:46:44.882Z,969.81
2022-10-30T05:47:34.851Z,969.79
2022-10-30T05:48:24.839Z,969.80
2022-10-30T05:49:14.831Z,969.83
2022-10-30T05:50:04.826Z,969.82
2022-10-30T05:50:55.027Z,969.82
2022-10-30T05:51:44.808Z,969.80
2022-10-30T05:52:34.790Z,969.79
2022-10-30T05:53:24.789Z,969.83
2022-10-30T05:54:14.768Z,969.83
2022-10-30T05:55:04.766Z,969.86
2022-10-30T05:55:54.759Z,969.80
2022-10-30T05:56:44.960Z,969.82
2022-10-30T05:57:34.753Z,969.82
2022-10-30T05:58:24.728Z,969.81
2022-10-30T05:59:14.724Z,969.79
2022-10-30T06:00:04.709Z,969.83
2022-10-30T06:00:54.704Z,969.81
2022-10-30T06:02:34.977Z,969.82
2022-10-30T06:03:24.671Z,969.82
2022-10-30T06:04:14.657Z,969.82
2022-10-30T06:05:04.660Z,969.78
2022-10-30T06:05:54.656Z,969.82
2022-10-30T06:06:44.636Z,969.84
2022-10-30T06:07:34.627Z,969.86
2022-10-30T06:08:24.646Z,969.86
2022-10-30T06:09:14.604Z,969.86
2022-10-30T06:10:04.597Z,969.88
2022-10-30T06:10:54.600Z,969.88
2022-10-30T06:11:44.590Z,969.89
2022-10-30T06:12:34.576Z,969.84
2022-10-30T06:13:24.566Z,969.88
2022-10-30T06:14:14.607Z,969.84
2022-10-30T06:15:04.541Z,969.87
2022-10-30T06:15:54.538Z,969.86
2022-10-30T06:16:44.525Z,969.87
2022-10-30T06:17:34.517Z,969.91
2022-10-30T06:18:24.504Z,969.90
2022-10-30T06:19:17.633Z,969.89
2022-10-30T06:20:04.534Z,969.85
2022-10-30T06:20:54.478Z,969.88
2022-10-30T06:21:44.466Z,969.93
2022-10-30T06:22:34.460Z,969.87
2022-10-30T06:23:24.458Z,969.92
2022-10-30T06:24:14.434Z,969.90
2022-10-30T06:25:04.427Z,969.89
2022-10-30T06:25:54.634Z,969.91
2022-10-30T06:26:44.416Z,969.91
2022-10-30T06:27:34.404Z,969.90
2022-10-30T06:28:24.411Z,969.91
2022-10-30T06:29:14.384Z,969.91
2022-10-30T06:30:04.374Z,969.92
2022-10-30T06:30:54.369Z,969.93
2022-10-30T06:31:44.383Z,969.94
2022-10-30T06:32:34.345Z,969.92
2022-10-30T06:33:24.337Z,969.93
2022-10-30T06:34:14.544Z,969.93
2022-10-30T06:35:04.344Z,969.95
2022-10-30T06:35:54.311Z,969.94
2022-10-30T06:36:44.337Z,969.93
2022-10-30T06:37:34.284Z,969.97
2022-10-30T06:38:24.283Z,969.95
2022-10-30T06:39:14.283Z,969.95
2022-10-30T06:40:07.475Z,969.97
2022-10-30T06:40:54.252Z,970.01
2022-10-30T06:41:44.241Z,970.00
2022-10-30T06:42:34.243Z,970.00
2022-10-30T06:43:24.230Z,970.00
2022-10-30T06:44:14.234Z,970.05
2022-10-30T06:45:04.214Z,970.00
2022-10-30T06:45:54.300Z,969.99
2022-10-30T06:46:44.193Z,970.00
2022-10-30T06:47:34.172Z,970.04
2022-10-30T06:48:24.180Z,969.97
2022-10-30T06:49:14.152Z,969.97
2022-10-30T06:50:04.151Z,969.99
2022-10-30T06:50:54.141Z,969.99
2022-10-30T06:51:44.172Z,969.98
2022-10-30T06:52:34.141Z,969.97
2022-10-30T06:53:24.126Z,970.00
2022-10-30T06:54:14.116Z,970.00
2022-10-30T06:55:04.094Z,969.99
2022-10-30T06:55:58.638Z,970.03
2022-10-30T06:56:44.083Z,970.03
2022-10-30T06:57:34.090Z,970.00
2022-10-30T06:58:24.061Z,970.01
2022-10-30T06:59:14.048Z,970.04
2022-10-30T07:00:04.040Z,970.02
2022-10-30T07:00:54.039Z,970.05
2022-10-30T07:01:44.087Z,970.08
2022-10-30T07:02:34.012Z,970.03
2022-10-30T07:03:24.033Z,970.04
2022-10-30T07:04:14.003Z,970.02
2022-10-30T07:05:04.010Z,970.04
2022-10-30T07:05:53.972Z,970.06
2022-10-30T07:06:44.182Z,970.07
2022-10-30T07:07:33.958Z,970.05
2022-10-30T07:08:23.949Z,970.06
2022-10-30T07:09:13.929Z,970.08
2022-10-30T07:10:03.929Z,970.13
2022-10-30T07:10:53.910Z,970.09
2022-10-30T07:11:43.908Z,970.11
2022-10-30T07:12:33.921Z,970.10
2022-10-30T07:13:23.904Z,970.11
2022-10-30T07:14:13.880Z,970.16
2022-10-30T07:15:03.876Z,970.16
2022-10-30T07:15:53.860Z,970.12
2022-10-30T07:16:43.849Z,970.12
2022-10-30T07:17:33.838Z,970.10
2022-10-30T07:18:23.865Z,970.09
2022-10-30T07:19:13.818Z,970.14
2022-10-30T07:20:03.817Z,970.10
2022-10-30T07:20:53.799Z,970.10
2022-10-30T07:21:43.801Z,970.09
2022-10-30T07:22:33.797Z,970.10
2022-10-30T07:23:23.778Z,970.11
2022-10-30T07:24:13.798Z,970.09
2022-10-30T07:25:03.757Z,970.09
2022-10-30T07:25:53.738Z,970.10
2022-10-30T07:26:43.758Z,970.12
2022-10-30T07:27:33.727Z,970.13
2022-10-30T07:28:23.731Z,970.13
2022-10-30T07:29:13.712Z,970.08
2022-10-30T07:30:03.767Z,970.10
2022-10-30T07:30:53.699Z,970.12
2022-10-30T07:31:57.675Z,970.12
2022-10-30T07:32:34.677Z,970.04
2022-10-30T07:33:24.335Z,970.09
2022-10-30T07:34:13.668Z,970.08
2022-10-30T07:35:03.672Z,970.03
2022-10-30T07:35:53.674Z,970.06
2022-10-30T07:36:43.658Z,970.08
2022-10-30T07:37:33.615Z,970.09
2022-10-30T07:38:23.614Z,970.04
2022-10-30T07:39:13.595Z,970.07
2022-10-30T07:40:06.346Z,970.07
2022-10-30T07:40:54.605Z,970.08
2022-10-30T07:41:48.893Z,970.06
2022-10-30T07:42:34.555Z,970.07
2022-10-30T07:43:23.554Z,970.03
2022-10-30T07:44:13.542Z,970.03
2022-10-30T07:45:03.610Z,970.06
2022-10-30T07:45:53.531Z,970.06
2022-10-30T07:46:43.542Z,970.10
2022-10-30T07:47:33.505Z,970.05
2022-10-30T07:48:23.520Z,970.09
2022-10-30T07:49:13.483Z,970.10
2022-10-30T07:50:03.504Z,970.08
2022-10-30T07:50:53.471Z,970.09
2022-10-30T07:51:43.466Z,970.07
2022-10-30T07:52:33.443Z,970.05
2022-10-30T07:53:23.435Z,970.03
2022-10-30T07:54:13.440Z,970.05
2022-10-30T07:55:03.420Z,970.10
2022-10-30T07:55:53.432Z,970.11
2022-10-30T07:56:43.402Z,970.11
2022-10-30T07:57:33.384Z,970.10
2022-10-30T07:58:23.383Z,970.12
2022-10-30T07:59:13.372Z,970.12
2022-10-30T08:00:04.590Z,970.13
2022-10-30T08:00:53.358Z,970.08
2022-10-30T08:01:43.680Z,970.13
2022-10-30T08:02:33.458Z,970.14
2022-10-30T08:03:23.336Z,970.15
2022-10-30T08:04:13.317Z,970.11
2022-10-30T08:05:03.303Z,970.13
2022-10-30T08:05:53.316Z,970.11
2022-10-30T08:06:43.291Z,970.13
2022-10-30T08:07:36.109Z,970.11
2022-10-30T08:08:23.275Z,970.12
2022-10-30T08:09:13.272Z,970.14
2022-10-30T08:10:03.252Z,970.13
2022-10-30T08:10:53.246Z,970.12
2022-10-30T08:11:43.250Z,970.14
2022-10-30T08:12:33.219Z,970.14
2022-10-30T08:13:23.430Z,970.14
2022-10-30T08:14:13.207Z,970.14
2022-10-30T08:15:03.200Z,970.17
2022-10-30T08:15:53.191Z,970.15
2022-10-30T08:16:43.180Z,970.14
2022-10-30T08:17:33.162Z,970.15
2022-10-30T08:18:23.159Z,970.15
2022-10-30T08:19:13.170Z,970.13
2022-10-30T08:20:03.141Z,970.11
2022-10-30T08:20:53.135Z,970.12
2022-10-30T08:21:43.118Z,970.16
2022-10-30T08:22:33.131Z,970.12
2022-10-30T08:23:23.122Z,970.12
2022-10-30T08:24:13.099Z,970.10
2022-10-30T08:25:03.109Z,970.11
2022-10-30T08:25:53.067Z,970.12
2022-10-30T08:26:43.066Z,970.12
2022-10-30T08:27:33.048Z,970.08
2022-10-30T08:28:25.811Z,970.08
2022-10-30T08:29:14.040Z,970.07
2022-10-30T08:30:03.042Z,970.07
2022-10-30T08:30:53.074Z,970.09
2022-10-30T08:31:43.009Z,970.09
2022-10-30T08:32:33.001Z,970.06
2022-10-30T08:33:22.989Z,970.03
2022-10-30T08:34:12.987Z,970.03
2022-10-30T08:35:02.972Z,970.03
2022-10-30T08:35:52.976Z,969.99
2022-10-30T08:36:46.717Z,969.99
2022-10-30T08:37:33.948Z,970.01
2022-10-30T08:38:22.927Z,969.98
2022-10-30T08:39:12.930Z,969.99
2022-10-30T08:40:02.919Z,970.01
2022-10-30T08:40:52.929Z,970.00
2022-10-30T08:41:42.889Z,969.95
2022-10-30T08:42:32.908Z,969.98
2022-10-30T08:43:22.885Z,969.97
2022-10-30T08:44:12.878Z,969.96
2022-10-30T08:45:02.893Z,969.98
2022-10-30T08:45:52.867Z,969.96
2022-10-30T08:46:42.836Z,969.97
2022-10-30T08:47:32.836Z,969.95
2022-10-30T08:48:23.028Z,969.95
2022-10-30T08:49:12.812Z,969.97
2022-10-30T08:50:02.815Z,969.92
2022-10-30T08:50:52.796Z,969.91
2022-10-30T08:51:42.787Z,969.91
2022-10-30T08:52:32.775Z,969.88
2022-10-30T08:53:22.759Z,969.92
2022-10-30T08:54:12.795Z,969.88
2022-10-30T08:55:02.735Z,969.91
2022-10-30T08:55:52.738Z,969.88
2022-10-30T08:56:42.726Z,969.88
2022-10-30T08:57:32.727Z,969.91
2022-10-30T08:58:22.706Z,969.90
2022-10-30T08:59:17.144Z,969.88
2022-10-30T09:00:03.742Z,969.88
2022-10-30T09:00:57.217Z,969.90
2022-10-30T09:01:43.779Z,969.88
2022-10-30T09:02:32.797Z,969.89
2022-10-30T09:03:22.661Z,969.90
2022-10-30T09:04:12.654Z,969.91
2022-10-30T09:05:02.698Z,969.89
2022-10-30T09:05:52.664Z,969.92
2022-10-30T09:06:42.606Z,969.88
2022-10-30T09:07:32.608Z,969.91
2022-10-30T09:08:22.596Z,969.90
2022-10-30T09:09:12.588Z,969.89
2022-10-30T09:10:02.578Z,969.90
2022-10-30T09:10:52.566Z,969.90
2022-10-30T09:11:43.036Z,969.85
2022-10-30T09:12:32.553Z,969.81
2022-10-30T09:13:22.543Z,969.78
2022-10-30T09:14:12.575Z,969.80
2022-10-30T09:15:02.516Z,969.79
2022-10-30T09:15:52.518Z,969.77
2022-10-30T09:16:42.495Z,969.80
2022-10-30T09:17:32.724Z,969.81
2022-10-30T09:18:22.481Z,969.78
2022-10-30T09:19:17.644Z,969.80
2022-10-30T09:20:03.463Z,969.75
2022-10-30T09:20:52.463Z,969.78
2022-10-30T09:21:42.452Z,969.76
2022-10-30T09:22:32.445Z,969.83
2022-10-30T09:23:22.463Z,969.81
2022-10-30T09:24:12.425Z,969.78
2022-10-30T09:25:02.412Z,969.78
2022-10-30T09:25:52.402Z,969.75
2022-10-30T09:26:42.395Z,969.80
2022-10-30T09:27:32.392Z,969.76
2022-10-30T09:28:22.373Z,969.77
2022-10-30T09:29:12.401Z,969.75
2022-10-30T09:30:02.361Z,969.79
2022-10-30T09:30:52.342Z,969.76
2022-10-30T09:31:42.331Z,969.79
2022-10-30T09:32:32.336Z,969.75
2022-10-30T09:33:22.315Z,969.77
2022-10-30T09:34:12.320Z,969.78
2022-10-30T09:35:02.335Z,969.74
2022-10-30T09:35:52.292Z,969.72
2022-10-30T09:36:42.272Z,969.71
2022-10-30T09:37:32.285Z,969.73
2022-10-30T09:38:22.267Z,969.70
2022-10-30T09:39:12.251Z,969.74
2022-10-30T09:40:02.248Z,969.70
2022-10-30T09:40:52.452Z,969.74
2022-10-30T09:41:44.746Z,969.70
2022-10-30T09:42:32.230Z,969.71
2022-10-30T09:43:22.201Z,969.71
2022-10-30T09:44:12.201Z,969.71
2022-10-30T09:45:27.305Z,969.67
2022-10-30T09:45:53.256Z,969.66
2022-10-30T09:46:42.176Z,969.66
2022-10-30T09:47:32.161Z,969.70
2022-10-30T09:48:22.150Z,969.67
2022-10-30T09:49:12.153Z,969.65
2022-10-30T09:50:02.131Z,969.64
2022-10-30T09:50:52.240Z,969.67
2022-10-30T09:51:42.139Z,969.68
2022-10-30T09:52:32.110Z,969.67
2022-10-30T09:53:22.090Z,969.62
2022-10-30T09:54:12.091Z,969.66
2022-10-30T09:55:02.081Z,969.65
2022-10-30T09:55:52.073Z,969.66
2022-10-30T09:56:42.057Z,969.67
2022-10-30T09:57:32.089Z,969.68
2022-10-30T09:58:22.051Z,969.64
2022-10-30T09:59:12.034Z,969.61
2022-10-30T10:00:02.027Z,969.63
2022-10-30T10:00:52.074Z,969.64
2022-10-30T10:01:42.211Z,969.64
2022-10-30T10:02:32.223Z,969.66
2022-10-30T10:03:22.279Z,969.65
2022-10-30T10:04:11.978Z,969.63
2022-10-30T10:05:01.971Z,969.62
2022-10-30T10:05:51.959Z,969.61
2022-10-30T10:06:41.951Z,969.58
2022-10-30T10:07:31.951Z,969.60
2022-10-30T10:08:21.929Z,969.59
2022-10-30T10:09:12.148Z,969.58
2022-10-30T10:10:02.029Z,969.56
2022-10-30T10:10:51.906Z,969.54
2022-10-30T10:11:41.889Z,969.61
2022-10-30T10:12:31.889Z,969.57
2022-10-30T10:13:21.883Z,969.59
2022-10-30T10:14:11.872Z,969.58
2022-10-30T10:15:01.936Z,969.59
2022-10-30T10:15:51.867Z,969.56
2022-10-30T10:16:41.838Z,969.58
2022-10-30T10:17:31.835Z,969.54
2022-10-30T10:18:21.847Z,969.55
2022-10-30T10:19:11.821Z,969.51
2022-10-30T10:20:01.825Z,969.46
2022-10-30T10:20:52.015Z,969.49
2022-10-30T10:21:41.790Z,969.50
2022-10-30T10:22:31.777Z,969.50
2022-10-30T10:23:21.767Z,969.49
2022-10-30T10:24:11.790Z,969.52